sensor_id;sensor_type;location;lat;lon;timestamp;P1;durP1;ratioP1;P2;durP2;ratioP2
54328;SDS011;40710;51.120;13.136;2022-09-19T00:00:22;1390.15;;;396.65;;
54328;SDS011;40710;51.120;13.136;2022-09-19T00:02:47;1331.13;;;373.13;;
54328;SDS011;40710;51.120;13.136;2022-09-19T00:05:11;1334.47;;;366.88;;
54328;SDS011;40710;51.120;13.136;2022-09-19T00:07:36;1334.03;;;361.00;;
54328;SDS011;40710;51.120;13.136;2022-09-19T00:10:00;1322.28;;;426.67;;
54328;SDS011;40710;51.120;13.136;2022-09-19T00:12:24;1312.28;;;441.30;;
54328;SDS011;40710;51.120;13.136;2022-09-19T00:14:50;1313.85;;;436.25;;
54328;SDS011;40710;51.120;13.136;2022-09-19T00:17:14;1301.22;;;439.80;;
54328;SDS011;40710;51.120;13.136;2022-09-19T00:19:39;1266.85;;;433.17;;
54328;SDS011;40710;51.120;13.136;2022-09-19T00:22:03;1307.15;;;454.27;;
54328;SDS011;40710;51.120;13.136;2022-09-19T00:24:28;1305.95;;;447.25;;
54328;SDS011;40710;51.120;13.136;2022-09-19T00:27:13;1271.03;;;428.45;;
54328;SDS011;40710;51.120;13.136;2022-09-19T00:29:41;1309.35;;;448.13;;
54328;SDS011;40710;51.120;13.136;2022-09-19T00:32:06;1304.15;;;449.40;;
54328;SDS011;40710;51.120;13.136;2022-09-19T00:34:31;1297.82;;;433.63;;
54328;SDS011;40710;51.120;13.136;2022-09-19T00:36:56;1269.93;;;434.90;;
54328;SDS011;40710;51.120;13.136;2022-09-19T00:39:21;1301.60;;;440.15;;
54328;SDS011;40710;51.120;13.136;2022-09-19T00:41:46;1301.68;;;439.10;;
54328;SDS011;40710;51.120;13.136;2022-09-19T00:46:52;1304.50;;;440.83;;
54328;SDS011;40710;51.120;13.136;2022-09-19T00:49:23;1268.93;;;421.50;;
54328;SDS011;40710;51.120;13.136;2022-09-19T00:51:56;1303.80;;;431.45;;
54328;SDS011;40710;51.120;13.136;2022-09-19T00:54:26;1277.10;;;423.50;;
54328;SDS011;40710;51.120;13.136;2022-09-19T00:56:54;1275.00;;;422.38;;
54328;SDS011;40710;51.120;13.136;2022-09-19T00:59:21;1279.88;;;427.80;;
54328;SDS011;40710;51.120;13.136;2022-09-19T01:01:47;1280.40;;;423.83;;
54328;SDS011;40710;51.120;13.136;2022-09-19T01:04:13;1285.88;;;422.52;;
54328;SDS011;40710;51.120;13.136;2022-09-19T01:06:47;1279.00;;;416.42;;
54328;SDS011;40710;51.120;13.136;2022-09-19T01:09:17;1314.22;;;441.73;;
54328;SDS011;40710;51.120;13.136;2022-09-19T01:11:56;1317.88;;;440.67;;
54328;SDS011;40710;51.120;13.136;2022-09-19T01:14:39;1283.05;;;419.90;;
54328;SDS011;40710;51.120;13.136;2022-09-19T01:17:38;1316.78;;;435.85;;
54328;SDS011;40710;51.120;13.136;2022-09-19T01:20:19;1306.68;;;425.58;;
54328;SDS011;40710;51.120;13.136;2022-09-19T01:26:02;1336.63;;;438.88;;
54328;SDS011;40710;51.120;13.136;2022-09-19T01:28:46;1330.35;;;438.45;;
54328;SDS011;40710;51.120;13.136;2022-09-19T01:31:19;1318.93;;;427.77;;
54328;SDS011;40710;51.120;13.136;2022-09-19T01:33:51;1321.40;;;421.33;;
54328;SDS011;40710;51.120;13.136;2022-09-19T01:36:25;1315.78;;;418.38;;
54328;SDS011;40710;51.120;13.136;2022-09-19T01:38:54;1292.68;;;417.08;;
54328;SDS011;40710;51.120;13.136;2022-09-19T01:41:21;1337.55;;;431.98;;
54328;SDS011;40710;51.120;13.136;2022-09-19T01:43:45;1340.35;;;424.50;;
54328;SDS011;40710;51.120;13.136;2022-09-19T01:46:13;1294.22;;;405.05;;
54328;SDS011;40710;51.120;13.136;2022-09-19T01:48:54;1299.53;;;408.95;;
54328;SDS011;40710;51.120;13.136;2022-09-19T01:51:36;1291.88;;;405.80;;
54328;SDS011;40710;51.120;13.136;2022-09-19T01:57:07;1315.63;;;412.08;;
54328;SDS011;40710;51.120;13.136;2022-09-19T02:00:02;1322.05;;;390.55;;
54328;SDS011;40710;51.120;13.136;2022-09-19T02:08:02;1321.68;;;396.33;;
54328;SDS011;40710;51.120;13.136;2022-09-19T02:10:33;1336.32;;;401.88;;
54328;SDS011;40710;51.120;13.136;2022-09-19T02:13:04;1376.13;;;402.58;;
54328;SDS011;40710;51.120;13.136;2022-09-19T02:15:33;1379.80;;;399.38;;
54328;SDS011;40710;51.120;13.136;2022-09-19T02:18:01;1322.78;;;392.42;;
54328;SDS011;40710;51.120;13.136;2022-09-19T02:20:33;1324.45;;;387.52;;
54328;SDS011;40710;51.120;13.136;2022-09-19T02:23:04;1380.90;;;390.60;;
54328;SDS011;40710;51.120;13.136;2022-09-19T02:25:33;1315.25;;;406.08;;
54328;SDS011;40710;51.120;13.136;2022-09-19T02:28:00;1307.85;;;408.25;;
54328;SDS011;40710;51.120;13.136;2022-09-19T02:30:29;1311.53;;;408.63;;
54328;SDS011;40710;51.120;13.136;2022-09-19T02:32:54;1298.60;;;416.50;;
54328;SDS011;40710;51.120;13.136;2022-09-19T02:35:20;1327.70;;;429.67;;
54328;SDS011;40710;51.120;13.136;2022-09-19T02:38:09;1322.00;;;430.25;;
54328;SDS011;40710;51.120;13.136;2022-09-19T02:40:47;1326.93;;;430.75;;
54328;SDS011;40710;51.120;13.136;2022-09-19T02:43:26;1288.57;;;412.17;;
54328;SDS011;40710;51.120;13.136;2022-09-19T02:46:03;1289.35;;;415.60;;
54328;SDS011;40710;51.120;13.136;2022-09-19T02:48:42;1291.65;;;422.10;;
54328;SDS011;40710;51.120;13.136;2022-09-19T02:53:54;1287.30;;;419.65;;
54328;SDS011;40710;51.120;13.136;2022-09-19T02:56:25;1323.47;;;449.92;;
54328;SDS011;40710;51.120;13.136;2022-09-19T02:59:00;1322.18;;;448.17;;
54328;SDS011;40710;51.120;13.136;2022-09-19T03:01:28;1293.15;;;418.60;;
54328;SDS011;40710;51.120;13.136;2022-09-19T03:03:57;1333.38;;;433.95;;
54328;SDS011;40710;51.120;13.136;2022-09-19T03:06:40;1290.97;;;418.03;;
54328;SDS011;40710;51.120;13.136;2022-09-19T03:09:08;1320.63;;;439.88;;
54328;SDS011;40710;51.120;13.136;2022-09-19T03:11:36;1324.90;;;438.77;;
54328;SDS011;40710;51.120;13.136;2022-09-19T03:14:04;1285.47;;;415.15;;
54328;SDS011;40710;51.120;13.136;2022-09-19T03:16:30;1327.28;;;439.65;;
54328;SDS011;40710;51.120;13.136;2022-09-19T03:18:58;1294.90;;;412.58;;
54328;SDS011;40710;51.120;13.136;2022-09-19T03:21:23;1330.05;;;438.52;;
54328;SDS011;40710;51.120;13.136;2022-09-19T03:23:50;1334.18;;;432.00;;
54328;SDS011;40710;51.120;13.136;2022-09-19T03:26:23;1322.90;;;412.80;;
54328;SDS011;40710;51.120;13.136;2022-09-19T03:28:53;1334.50;;;424.08;;
54328;SDS011;40710;51.120;13.136;2022-09-19T03:31:18;1293.38;;;412.08;;
54328;SDS011;40710;51.120;13.136;2022-09-19T03:33:43;1327.07;;;433.10;;
54328;SDS011;40710;51.120;13.136;2022-09-19T03:36:08;1284.13;;;414.30;;
54328;SDS011;40710;51.120;13.136;2022-09-19T03:38:32;1328.68;;;422.02;;
54328;SDS011;40710;51.120;13.136;2022-09-19T03:40:57;1299.70;;;402.67;;
54328;SDS011;40710;51.120;13.136;2022-09-19T03:43:21;1298.15;;;410.20;;
54328;SDS011;40710;51.120;13.136;2022-09-19T03:45:46;1326.70;;;420.23;;
54328;SDS011;40710;51.120;13.136;2022-09-19T03:48:11;1294.68;;;401.13;;
54328;SDS011;40710;51.120;13.136;2022-09-19T03:50:35;1310.63;;;428.73;;
54328;SDS011;40710;51.120;13.136;2022-09-19T03:52:59;1276.43;;;422.27;;
54328;SDS011;40710;51.120;13.136;2022-09-19T03:55:25;1306.60;;;454.08;;
54328;SDS011;40710;51.120;13.136;2022-09-19T03:57:49;1307.25;;;445.92;;
54328;SDS011;40710;51.120;13.136;2022-09-19T04:00:14;1305.38;;;440.15;;
54328;SDS011;40710;51.120;13.136;2022-09-19T04:02:39;1307.35;;;446.88;;
54328;SDS011;40710;51.120;13.136;2022-09-19T04:05:03;1277.55;;;433.13;;
54328;SDS011;40710;51.120;13.136;2022-09-19T04:07:28;1283.57;;;439.88;;
54328;SDS011;40710;51.120;13.136;2022-09-19T04:09:54;1275.05;;;430.83;;
54328;SDS011;40710;51.120;13.136;2022-09-19T04:12:22;1304.25;;;437.27;;
54328;SDS011;40710;51.120;13.136;2022-09-19T04:14:46;1283.05;;;438.90;;
54328;SDS011;40710;51.120;13.136;2022-09-19T04:17:11;1276.80;;;442.17;;
54328;SDS011;40710;51.120;13.136;2022-09-19T04:19:37;1299.10;;;450.45;;
54328;SDS011;40710;51.120;13.136;2022-09-19T04:22:03;1310.68;;;454.23;;
54328;SDS011;40710;51.120;13.136;2022-09-19T04:24:27;1316.00;;;457.20;;
54328;SDS011;40710;51.120;13.136;2022-09-19T04:26:53;1283.30;;;444.38;;
54328;SDS011;40710;51.120;13.136;2022-09-19T04:29:17;1310.03;;;455.17;;
54328;SDS011;40710;51.120;13.136;2022-09-19T04:31:43;1319.88;;;453.83;;
54328;SDS011;40710;51.120;13.136;2022-09-19T04:34:09;1288.93;;;450.10;;
54328;SDS011;40710;51.120;13.136;2022-09-19T04:36:41;1278.15;;;430.90;;
54328;SDS011;40710;51.120;13.136;2022-09-19T04:39:05;1277.63;;;433.23;;
54328;SDS011;40710;51.120;13.136;2022-09-19T04:41:31;1294.03;;;454.20;;
54328;SDS011;40710;51.120;13.136;2022-09-19T04:43:57;1323.20;;;460.73;;
54328;SDS011;40710;51.120;13.136;2022-09-19T04:46:22;1276.65;;;450.75;;
54328;SDS011;40710;51.120;13.136;2022-09-19T04:48:47;1320.13;;;469.35;;
54328;SDS011;40710;51.120;13.136;2022-09-19T04:51:12;1320.82;;;474.15;;
54328;SDS011;40710;51.120;13.136;2022-09-19T04:53:37;1325.53;;;477.23;;
54328;SDS011;40710;51.120;13.136;2022-09-19T04:56:02;1283.80;;;457.17;;
54328;SDS011;40710;51.120;13.136;2022-09-19T04:58:27;1287.70;;;457.08;;
54328;SDS011;40710;51.120;13.136;2022-09-19T05:00:52;1301.70;;;457.83;;
54328;SDS011;40710;51.120;13.136;2022-09-19T05:03:18;1304.63;;;446.48;;
54328;SDS011;40710;51.120;13.136;2022-09-19T05:05:44;1273.40;;;439.45;;
54328;SDS011;40710;51.120;13.136;2022-09-19T05:08:14;1279.97;;;444.53;;
54328;SDS011;40710;51.120;13.136;2022-09-19T05:10:42;1272.90;;;436.13;;
54328;SDS011;40710;51.120;13.136;2022-09-19T05:13:07;1315.78;;;454.35;;
54328;SDS011;40710;51.120;13.136;2022-09-19T05:15:31;1276.63;;;434.95;;
54328;SDS011;40710;51.120;13.136;2022-09-19T05:17:55;1282.65;;;433.20;;
54328;SDS011;40710;51.120;13.136;2022-09-19T05:20:20;1277.40;;;433.58;;
54328;SDS011;40710;51.120;13.136;2022-09-19T05:22:45;1304.97;;;434.23;;
54328;SDS011;40710;51.120;13.136;2022-09-19T05:25:10;1312.60;;;442.60;;
54328;SDS011;40710;51.120;13.136;2022-09-19T05:27:34;1288.45;;;418.25;;
54328;SDS011;40710;51.120;13.136;2022-09-19T05:30:03;1299.22;;;415.00;;
54328;SDS011;40710;51.120;13.136;2022-09-19T05:32:28;1295.53;;;409.05;;
54328;SDS011;40710;51.120;13.136;2022-09-19T05:34:52;1331.60;;;422.30;;
54328;SDS011;40710;51.120;13.136;2022-09-19T05:37:20;1320.50;;;425.13;;
54328;SDS011;40710;51.120;13.136;2022-09-19T05:39:46;1326.35;;;437.98;;
54328;SDS011;40710;51.120;13.136;2022-09-19T05:42:10;1319.53;;;425.67;;
54328;SDS011;40710;51.120;13.136;2022-09-19T05:44:35;1294.57;;;411.10;;
54328;SDS011;40710;51.120;13.136;2022-09-19T05:46:59;1317.25;;;429.95;;
54328;SDS011;40710;51.120;13.136;2022-09-19T05:49:24;1327.18;;;435.85;;
54328;SDS011;40710;51.120;13.136;2022-09-19T05:51:49;1285.45;;;410.67;;
54328;SDS011;40710;51.120;13.136;2022-09-19T05:54:19;1320.57;;;431.05;;
54328;SDS011;40710;51.120;13.136;2022-09-19T05:56:43;1330.43;;;429.05;;
54328;SDS011;40710;51.120;13.136;2022-09-19T05:59:13;1318.60;;;428.98;;
54328;SDS011;40710;51.120;13.136;2022-09-19T06:01:37;1285.20;;;414.88;;
54328;SDS011;40710;51.120;13.136;2022-09-19T06:04:02;1314.53;;;422.38;;
54328;SDS011;40710;51.120;13.136;2022-09-19T06:06:26;1317.55;;;423.75;;
54328;SDS011;40710;51.120;13.136;2022-09-19T06:08:55;1284.30;;;430.48;;
54328;SDS011;40710;51.120;13.136;2022-09-19T06:11:20;1323.45;;;442.27;;
54328;SDS011;40710;51.120;13.136;2022-09-19T06:13:45;1282.35;;;429.30;;
54328;SDS011;40710;51.120;13.136;2022-09-19T06:16:28;1322.00;;;454.33;;
54328;SDS011;40710;51.120;13.136;2022-09-19T06:18:52;1321.00;;;450.48;;
54328;SDS011;40710;51.120;13.136;2022-09-19T06:21:17;1320.22;;;454.52;;
54328;SDS011;40710;51.120;13.136;2022-09-19T06:23:41;1330.93;;;460.45;;
54328;SDS011;40710;51.120;13.136;2022-09-19T06:26:06;1323.15;;;454.48;;
54328;SDS011;40710;51.120;13.136;2022-09-19T06:28:31;1337.55;;;464.55;;
54328;SDS011;40710;51.120;13.136;2022-09-19T06:30:58;1301.57;;;436.05;;
54328;SDS011;40710;51.120;13.136;2022-09-19T06:33:26;1333.78;;;441.85;;
54328;SDS011;40710;51.120;13.136;2022-09-19T06:35:51;1312.68;;;449.83;;
54328;SDS011;40710;51.120;13.136;2022-09-19T06:38:17;1304.93;;;416.58;;
54328;SDS011;40710;51.120;13.136;2022-09-19T06:40:41;1328.30;;;430.48;;
54328;SDS011;40710;51.120;13.136;2022-09-19T06:43:08;1294.95;;;421.00;;
54328;SDS011;40710;51.120;13.136;2022-09-19T06:45:33;1292.95;;;418.98;;
54328;SDS011;40710;51.120;13.136;2022-09-19T06:48:02;1296.07;;;420.45;;
54328;SDS011;40710;51.120;13.136;2022-09-19T06:50:26;1305.47;;;416.13;;
54328;SDS011;40710;51.120;13.136;2022-09-19T06:52:51;1294.45;;;421.65;;
54328;SDS011;40710;51.120;13.136;2022-09-19T06:55:16;1299.28;;;421.67;;
54328;SDS011;40710;51.120;13.136;2022-09-19T06:57:41;1331.40;;;435.17;;
54328;SDS011;40710;51.120;13.136;2022-09-19T07:00:05;1301.45;;;422.25;;
54328;SDS011;40710;51.120;13.136;2022-09-19T07:02:30;1310.25;;;418.13;;
54328;SDS011;40710;51.120;13.136;2022-09-19T07:04:55;1341.60;;;449.73;;
54328;SDS011;40710;51.120;13.136;2022-09-19T07:07:19;1353.25;;;455.75;;
54328;SDS011;40710;51.120;13.136;2022-09-19T07:09:43;1309.88;;;436.00;;
54328;SDS011;40710;51.120;13.136;2022-09-19T07:12:08;1321.18;;;393.38;;
54328;SDS011;40710;51.120;13.136;2022-09-19T07:14:33;1373.20;;;409.20;;
54328;SDS011;40710;51.120;13.136;2022-09-19T07:16:58;1330.18;;;397.02;;
54328;SDS011;40710;51.120;13.136;2022-09-19T07:19:22;1375.63;;;424.45;;
54328;SDS011;40710;51.120;13.136;2022-09-19T07:21:47;1307.00;;;403.58;;
54328;SDS011;40710;51.120;13.136;2022-09-19T07:24:12;1351.53;;;418.02;;
54328;SDS011;40710;51.120;13.136;2022-09-19T07:26:36;1327.05;;;390.40;;
54328;SDS011;40710;51.120;13.136;2022-09-19T07:29:00;1319.55;;;394.48;;
54328;SDS011;40710;51.120;13.136;2022-09-19T07:31:28;1325.30;;;397.90;;
54328;SDS011;40710;51.120;13.136;2022-09-19T07:33:52;1324.60;;;401.25;;
54328;SDS011;40710;51.120;13.136;2022-09-19T07:36:17;1316.93;;;413.38;;
54328;SDS011;40710;51.120;13.136;2022-09-19T07:38:45;1356.53;;;423.27;;
54328;SDS011;40710;51.120;13.136;2022-09-19T07:41:09;1306.53;;;418.30;;
54328;SDS011;40710;51.120;13.136;2022-09-19T07:43:34;1333.82;;;462.40;;
54328;SDS011;40710;51.120;13.136;2022-09-19T07:45:58;1312.72;;;466.83;;
54328;SDS011;40710;51.120;13.136;2022-09-19T07:48:23;1291.35;;;477.55;;
54328;SDS011;40710;51.120;13.136;2022-09-19T07:50:47;1289.95;;;477.05;;
54328;SDS011;40710;51.120;13.136;2022-09-19T07:53:14;1308.68;;;485.38;;
54328;SDS011;40710;51.120;13.136;2022-09-19T07:55:40;1276.25;;;477.75;;
54328;SDS011;40710;51.120;13.136;2022-09-19T07:58:08;1273.30;;;456.08;;
54328;SDS011;40710;51.120;13.136;2022-09-19T08:00:51;1237.70;;;466.73;;
54328;SDS011;40710;51.120;13.136;2022-09-19T08:03:16;1222.75;;;456.42;;
54328;SDS011;40710;51.120;13.136;2022-09-19T08:05:43;1222.43;;;465.25;;
54328;SDS011;40710;51.120;13.136;2022-09-19T08:08:11;1264.55;;;478.02;;
54328;SDS011;40710;51.120;13.136;2022-09-19T08:10:36;1277.30;;;456.95;;
54328;SDS011;40710;51.120;13.136;2022-09-19T08:13:03;1270.35;;;476.10;;
54328;SDS011;40710;51.120;13.136;2022-09-19T08:15:29;1275.93;;;476.60;;
54328;SDS011;40710;51.120;13.136;2022-09-19T08:20:22;1211.68;;;438.83;;
54328;SDS011;40710;51.120;13.136;2022-09-19T08:22:46;1211.22;;;440.30;;
54328;SDS011;40710;51.120;13.136;2022-09-19T08:25:10;1288.38;;;467.15;;
54328;SDS011;40710;51.120;13.136;2022-09-19T08:27:35;1276.05;;;489.27;;
54328;SDS011;40710;51.120;13.136;2022-09-19T08:30:01;1276.15;;;475.75;;
54328;SDS011;40710;51.120;13.136;2022-09-19T08:32:25;1315.47;;;494.05;;
54328;SDS011;40710;51.120;13.136;2022-09-19T08:34:50;1290.60;;;460.15;;
54328;SDS011;40710;51.120;13.136;2022-09-19T08:37:14;1268.80;;;471.23;;
54328;SDS011;40710;51.120;13.136;2022-09-19T08:39:39;1270.72;;;478.35;;
54328;SDS011;40710;51.120;13.136;2022-09-19T08:42:31;1268.13;;;480.67;;
54328;SDS011;40710;51.120;13.136;2022-09-19T08:45:22;1265.80;;;477.63;;
54328;SDS011;40710;51.120;13.136;2022-09-19T08:48:05;1291.40;;;472.90;;
54328;SDS011;40710;51.120;13.136;2022-09-19T08:50:35;1265.28;;;461.75;;
54328;SDS011;40710;51.120;13.136;2022-09-19T08:53:04;1308.75;;;483.75;;
54328;SDS011;40710;51.120;13.136;2022-09-19T08:55:34;1275.65;;;484.40;;
54328;SDS011;40710;51.120;13.136;2022-09-19T08:58:00;1268.68;;;478.48;;
54328;SDS011;40710;51.120;13.136;2022-09-19T09:00:30;1307.72;;;485.63;;
54328;SDS011;40710;51.120;13.136;2022-09-19T09:03:04;1306.95;;;508.08;;
54328;SDS011;40710;51.120;13.136;2022-09-19T09:13:56;1308.50;;;510.92;;
54328;SDS011;40710;51.120;13.136;2022-09-19T09:16:36;1316.72;;;513.10;;
54328;SDS011;40710;51.120;13.136;2022-09-19T09:19:23;1315.60;;;509.88;;
54328;SDS011;40710;51.120;13.136;2022-09-19T09:24:45;1274.55;;;488.08;;
54328;SDS011;40710;51.120;13.136;2022-09-19T09:27:20;1314.03;;;493.15;;
54328;SDS011;40710;51.120;13.136;2022-09-19T09:29:47;1321.75;;;519.90;;
54328;SDS011;40710;51.120;13.136;2022-09-19T09:34:55;1316.00;;;511.85;;
54328;SDS011;40710;51.120;13.136;2022-09-19T09:37:24;1304.88;;;498.55;;
54328;SDS011;40710;51.120;13.136;2022-09-19T09:40:00;1275.78;;;498.02;;
54328;SDS011;40710;51.120;13.136;2022-09-19T09:42:58;1313.10;;;506.50;;
54328;SDS011;40710;51.120;13.136;2022-09-19T09:45:34;1277.45;;;503.42;;
54328;SDS011;40710;51.120;13.136;2022-09-19T09:48:11;1316.18;;;519.72;;
54328;SDS011;40710;51.120;13.136;2022-09-19T09:58:53;1273.30;;;493.17;;
54328;SDS011;40710;51.120;13.136;2022-09-19T10:04:26;1276.00;;;506.70;;
54328;SDS011;40710;51.120;13.136;2022-09-19T10:09:34;1267.38;;;491.38;;
54328;SDS011;40710;51.120;13.136;2022-09-19T10:12:21;1277.35;;;511.45;;
54328;SDS011;40710;51.120;13.136;2022-09-19T10:14:51;1304.32;;;510.50;;
54328;SDS011;40710;51.120;13.136;2022-09-19T10:17:19;1297.43;;;513.33;;
54328;SDS011;40710;51.120;13.136;2022-09-19T10:19:51;1310.07;;;512.83;;
54328;SDS011;40710;51.120;13.136;2022-09-19T10:22:20;1320.55;;;525.20;;
54328;SDS011;40710;51.120;13.136;2022-09-19T10:24:47;1321.47;;;532.53;;
54328;SDS011;40710;51.120;13.136;2022-09-19T10:27:19;1276.65;;;513.17;;
54328;SDS011;40710;51.120;13.136;2022-09-19T10:29:52;1318.25;;;523.90;;
54328;SDS011;40710;51.120;13.136;2022-09-19T10:32:23;1302.75;;;523.55;;
54328;SDS011;40710;51.120;13.136;2022-09-19T10:34:49;1281.40;;;523.53;;
54328;SDS011;40710;51.120;13.136;2022-09-19T10:37:14;1289.45;;;531.33;;
54328;SDS011;40710;51.120;13.136;2022-09-19T10:39:42;1320.50;;;533.47;;
54328;SDS011;40710;51.120;13.136;2022-09-19T10:44:59;1285.47;;;510.63;;
54328;SDS011;40710;51.120;13.136;2022-09-19T10:47:24;1283.63;;;511.75;;
54328;SDS011;40710;51.120;13.136;2022-09-19T10:49:49;1284.50;;;510.85;;
54328;SDS011;40710;51.120;13.136;2022-09-19T10:52:19;1291.93;;;533.90;;
54328;SDS011;40710;51.120;13.136;2022-09-19T10:54:46;1315.45;;;522.22;;
54328;SDS011;40710;51.120;13.136;2022-09-19T10:57:27;1291.13;;;530.35;;
54328;SDS011;40710;51.120;13.136;2022-09-19T11:00:19;1288.63;;;523.95;;
54328;SDS011;40710;51.120;13.136;2022-09-19T11:03:23;1291.65;;;539.50;;
54328;SDS011;40710;51.120;13.136;2022-09-19T11:05:41;1291.75;;;527.53;;
54328;SDS011;40710;51.120;13.136;2022-09-19T11:08:21;1316.15;;;526.17;;
54328;SDS011;40710;51.120;13.136;2022-09-19T11:10:48;1328.45;;;532.00;;
54328;SDS011;40710;51.120;13.136;2022-09-19T11:13:13;1337.07;;;554.67;;
54328;SDS011;40710;51.120;13.136;2022-09-19T11:18:25;1337.72;;;557.45;;
54328;SDS011;40710;51.120;13.136;2022-09-19T11:21:16;1309.82;;;600.70;;
54328;SDS011;40710;51.120;13.136;2022-09-19T11:24:02;1307.13;;;628.28;;
54328;SDS011;40710;51.120;13.136;2022-09-19T11:32:48;1302.65;;;674.95;;
54328;SDS011;40710;51.120;13.136;2022-09-19T11:38:15;1331.43;;;644.15;;
54328;SDS011;40710;51.120;13.136;2022-09-19T11:40:50;1303.43;;;701.42;;
54328;SDS011;40710;51.120;13.136;2022-09-19T11:43:41;1301.32;;;703.60;;
54328;SDS011;40710;51.120;13.136;2022-09-19T11:46:20;1300.72;;;712.67;;
54328;SDS011;40710;51.120;13.136;2022-09-19T11:49:26;1304.68;;;700.88;;
54328;SDS011;40710;51.120;13.136;2022-09-19T11:54:59;1332.10;;;667.00;;
54328;SDS011;40710;51.120;13.136;2022-09-19T11:57:36;1312.70;;;693.80;;
54328;SDS011;40710;51.120;13.136;2022-09-19T12:00:15;1317.45;;;707.30;;
54328;SDS011;40710;51.120;13.136;2022-09-19T12:02:55;1351.50;;;661.03;;
54328;SDS011;40710;51.120;13.136;2022-09-19T12:11:11;1309.13;;;693.38;;
54328;SDS011;40710;51.120;13.136;2022-09-19T12:13:41;1333.57;;;662.25;;
54328;SDS011;40710;51.120;13.136;2022-09-19T12:16:16;1329.57;;;680.90;;
54328;SDS011;40710;51.120;13.136;2022-09-19T12:18:45;1314.00;;;709.05;;
54328;SDS011;40710;51.120;13.136;2022-09-19T12:21:17;1302.57;;;694.05;;
54328;SDS011;40710;51.120;13.136;2022-09-19T12:23:46;1331.68;;;662.90;;
54328;SDS011;40710;51.120;13.136;2022-09-19T12:26:52;1334.68;;;649.25;;
54328;SDS011;40710;51.120;13.136;2022-09-19T12:29:32;1331.10;;;671.90;;
54328;SDS011;40710;51.120;13.136;2022-09-19T12:32:09;1319.63;;;657.60;;
54328;SDS011;40710;51.120;13.136;2022-09-19T12:34:51;1311.22;;;715.63;;
54328;SDS011;40710;51.120;13.136;2022-09-19T12:37:34;1329.90;;;669.03;;
54328;SDS011;40710;51.120;13.136;2022-09-19T12:40:20;1309.63;;;712.45;;
54328;SDS011;40710;51.120;13.136;2022-09-19T12:42:53;1332.53;;;675.95;;
54328;SDS011;40710;51.120;13.136;2022-09-19T12:45:29;1317.15;;;718.88;;
54328;SDS011;40710;51.120;13.136;2022-09-19T12:48:07;1353.38;;;675.15;;
54328;SDS011;40710;51.120;13.136;2022-09-19T12:50:41;1310.85;;;708.47;;
54328;SDS011;40710;51.120;13.136;2022-09-19T12:55:58;1314.38;;;644.22;;
54328;SDS011;40710;51.120;13.136;2022-09-19T12:58:31;1343.68;;;654.72;;
54328;SDS011;40710;51.120;13.136;2022-09-19T13:01:17;1337.22;;;644.22;;
54328;SDS011;40710;51.120;13.136;2022-09-19T13:03:53;1297.28;;;684.90;;
54328;SDS011;40710;51.120;13.136;2022-09-19T13:06:29;1300.05;;;687.05;;
54328;SDS011;40710;51.120;13.136;2022-09-19T13:09:06;1270.10;;;657.85;;
54328;SDS011;40710;51.120;13.136;2022-09-19T13:12:12;1285.35;;;667.33;;
54328;SDS011;40710;51.120;13.136;2022-09-19T13:14:49;1302.00;;;634.33;;
54328;SDS011;40710;51.120;13.136;2022-09-19T13:17:23;1279.28;;;618.95;;
54328;SDS011;40710;51.120;13.136;2022-09-19T13:20:15;1281.57;;;648.78;;
54328;SDS011;40710;51.120;13.136;2022-09-19T13:23:00;1265.50;;;597.20;;
54328;SDS011;40710;51.120;13.136;2022-09-19T13:25:45;1275.10;;;608.65;;
54328;SDS011;40710;51.120;13.136;2022-09-19T13:30:44;1283.35;;;593.92;;
54328;SDS011;40710;51.120;13.136;2022-09-19T13:33:24;1252.55;;;588.08;;
54328;SDS011;40710;51.120;13.136;2022-09-19T13:35:52;1272.97;;;643.22;;
54328;SDS011;40710;51.120;13.136;2022-09-19T13:38:24;1276.80;;;638.47;;
54328;SDS011;40710;51.120;13.136;2022-09-19T13:41:13;1284.45;;;637.47;;
54328;SDS011;40710;51.120;13.136;2022-09-19T13:43:46;1282.30;;;630.40;;
54328;SDS011;40710;51.120;13.136;2022-09-19T13:46:23;1279.95;;;627.30;;
54328;SDS011;40710;51.120;13.136;2022-09-19T13:48:56;1307.60;;;601.58;;
54328;SDS011;40710;51.120;13.136;2022-09-19T13:56:38;1285.80;;;647.65;;
54328;SDS011;40710;51.120;13.136;2022-09-19T13:59:09;1278.45;;;664.22;;
54328;SDS011;40710;51.120;13.136;2022-09-19T14:01:53;1275.32;;;618.20;;
54328;SDS011;40710;51.120;13.136;2022-09-19T14:04:19;1285.82;;;684.60;;
54328;SDS011;40710;51.120;13.136;2022-09-19T14:07:03;1295.05;;;641.55;;
54328;SDS011;40710;51.120;13.136;2022-09-19T14:12:00;1284.15;;;646.00;;
54328;SDS011;40710;51.120;13.136;2022-09-19T14:17:11;1264.68;;;630.45;;
54328;SDS011;40710;51.120;13.136;2022-09-19T14:19:43;1271.43;;;691.50;;
54328;SDS011;40710;51.120;13.136;2022-09-19T14:22:27;1275.10;;;647.90;;
54328;SDS011;40710;51.120;13.136;2022-09-19T14:25:17;1278.30;;;683.30;;
54328;SDS011;40710;51.120;13.136;2022-09-19T14:27:58;1286.15;;;689.70;;
54328;SDS011;40710;51.120;13.136;2022-09-19T14:30:32;1272.20;;;632.30;;
54328;SDS011;40710;51.120;13.136;2022-09-19T14:39:03;1250.97;;;624.85;;
54328;SDS011;40710;51.120;13.136;2022-09-19T14:42:00;1251.72;;;626.33;;
54328;SDS011;40710;51.120;13.136;2022-09-19T14:44:47;1265.55;;;659.78;;
54328;SDS011;40710;51.120;13.136;2022-09-19T14:47:36;1273.65;;;667.58;;
54328;SDS011;40710;51.120;13.136;2022-09-19T14:50:20;1269.10;;;633.80;;
54328;SDS011;40710;51.120;13.136;2022-09-19T14:52:49;1280.15;;;669.92;;
54328;SDS011;40710;51.120;13.136;2022-09-19T14:55:24;1272.18;;;664.92;;
54328;SDS011;40710;51.120;13.136;2022-09-19T14:57:51;1253.32;;;597.30;;
54328;SDS011;40710;51.120;13.136;2022-09-19T15:00:23;1269.50;;;634.30;;
54328;SDS011;40710;51.120;13.136;2022-09-19T15:02:52;1277.95;;;646.65;;
54328;SDS011;40710;51.120;13.136;2022-09-19T15:05:21;1270.75;;;613.67;;
54328;SDS011;40710;51.120;13.136;2022-09-19T15:07:48;1280.78;;;614.33;;
54328;SDS011;40710;51.120;13.136;2022-09-19T15:12:52;1274.80;;;635.38;;
54328;SDS011;40710;51.120;13.136;2022-09-19T15:15:17;1276.65;;;581.58;;
54328;SDS011;40710;51.120;13.136;2022-09-19T15:17:42;1277.55;;;577.28;;
54328;SDS011;40710;51.120;13.136;2022-09-19T15:25:19;1291.78;;;626.08;;
54328;SDS011;40710;51.120;13.136;2022-09-19T15:27:56;1295.22;;;604.50;;
54328;SDS011;40710;51.120;13.136;2022-09-19T15:30:27;1285.75;;;569.97;;
54328;SDS011;40710;51.120;13.136;2022-09-19T15:33:01;1288.55;;;570.30;;